Terminal Aerodrome Forecast
Issued by NWS Springfield, MO

Home | Current Version | Previous Version | Text Only | Print | Product List | Glossary On
Versions: 1 2 3 4 5 6 7 8 9 10 11 12 13 14 15 16
000
FTUS43 KSGF 120500
TAFSGF
TAF
KSGF 120520Z 1206/1306 04009KT P6SM OVC007
      TEMPO 1206/1209 OVC010
     FM121500 03013KT P6SM OVC015
     FM122200 01012G21KT P6SM OVC020=

USA.gov is the U.S. government's official web portal to all federal, state and local government web resources and services.